createdAt,value
2023-02-02T00:01:49.457Z,68.75
2023-02-02T00:04:24.941Z,68.89
2023-02-02T00:06:51.985Z,68.76
2023-02-02T00:09:20.256Z,69.04
2023-02-02T00:11:48.727Z,69.28
2023-02-02T00:14:15.663Z,69.19
2023-02-02T00:16:44.083Z,69.38
2023-02-02T00:19:15.171Z,70.84
2023-02-02T00:21:42.231Z,71.14
2023-02-02T00:24:11.238Z,70.73
2023-02-02T00:26:39.795Z,71.25
2023-02-02T00:29:08.041Z,70.94
2023-02-02T00:31:35.218Z,70.47
2023-02-02T00:34:01.969Z,71.49
2023-02-02T00:36:28.632Z,70.58
2023-02-02T00:38:55.257Z,70.50
2023-02-02T00:41:22.604Z,71.06
2023-02-02T00:44:09.249Z,71.54
2023-02-02T00:46:39.611Z,71.06
2023-02-02T00:49:06.946Z,70.77
2023-02-02T00:51:33.870Z,70.00
2023-02-02T00:54:00.698Z,71.15
2023-02-02T00:56:27.583Z,70.92
2023-02-02T00:58:54.199Z,70.34
2023-02-02T01:01:22.395Z,70.33
2023-02-02T01:03:50.739Z,71.04
2023-02-02T01:06:18.585Z,70.38
2023-02-02T01:08:46.497Z,70.93
2023-02-02T01:11:13.206Z,70.63
2023-02-02T01:13:40.999Z,70.26
2023-02-02T01:16:08.039Z,69.91
2023-02-02T01:18:34.864Z,69.66
2023-02-02T01:21:05.177Z,69.64
2023-02-02T01:23:32.775Z,69.88
2023-02-02T01:26:01.618Z,69.41
2023-02-02T01:28:29.593Z,69.93
2023-02-02T01:30:57.426Z,69.78
2023-02-02T01:33:25.369Z,69.92
2023-02-02T01:35:54.842Z,70.32
2023-02-02T01:38:24.184Z,69.89
2023-02-02T01:40:55.045Z,69.39
2023-02-02T01:43:31.543Z,68.99
2023-02-02T01:45:59.089Z,69.63
2023-02-02T01:48:32.544Z,70.45
2023-02-02T01:51:09.566Z,70.50
2023-02-02T01:53:36.444Z,69.82
2023-02-02T01:56:06.434Z,69.74
2023-02-02T01:58:39.738Z,70.79
2023-02-02T02:01:07.022Z,70.19
2023-02-02T02:03:36.907Z,69.57
2023-02-02T02:06:15.144Z,70.40
2023-02-02T02:08:53.884Z,70.33
2023-02-02T02:11:22.575Z,69.67
2023-02-02T02:14:09.592Z,69.55
2023-02-02T02:17:04.309Z,70.32
2023-02-02T02:20:38.855Z,70.52
2023-02-02T02:23:45.576Z,69.63
2023-02-02T02:26:44.392Z,69.23
2023-02-02T02:29:26.376Z,70.80
2023-02-02T02:32:08.419Z,70.63
2023-02-02T02:34:44.549Z,69.84
2023-02-02T02:37:32.729Z,70.19
2023-02-02T02:40:06.565Z,71.17
2023-02-02T02:42:38.542Z,70.46
2023-02-02T02:45:08.178Z,69.53
2023-02-02T02:47:35.489Z,69.52
2023-02-02T02:50:03.494Z,69.80
2023-02-02T02:52:30.281Z,70.47
2023-02-02T02:54:59.741Z,70.24
2023-02-02T02:57:40.526Z,70.36
2023-02-02T03:00:19.825Z,69.95
2023-02-02T03:03:11.763Z,69.50
2023-02-02T03:06:10.834Z,70.16
2023-02-02T03:08:40.775Z,69.90
2023-02-02T03:11:10.971Z,69.75
2023-02-02T03:13:38.430Z,70.71
2023-02-02T03:16:05.242Z,70.17
2023-02-02T03:18:33.664Z,70.32
2023-02-02T03:21:00.554Z,70.23
2023-02-02T03:23:27.711Z,70.46
2023-02-02T03:25:55.119Z,69.41
2023-02-02T03:28:24.031Z,69.61
2023-02-02T03:30:52.016Z,69.98
2023-02-02T03:33:19.046Z,70.30
2023-02-02T03:35:45.755Z,69.62
2023-02-02T03:38:12.724Z,69.99
2023-02-02T03:40:40.510Z,69.63
2023-02-02T03:43:07.879Z,69.07
2023-02-02T03:45:39.072Z,68.91
2023-02-02T03:48:06.513Z,69.63
2023-02-02T03:50:33.696Z,68.60
2023-02-02T03:53:00.341Z,68.71
2023-02-02T03:55:27.016Z,68.45
2023-02-02T03:57:53.695Z,68.58
2023-02-02T04:00:20.916Z,69.19
2023-02-02T04:02:47.604Z,68.95
2023-02-02T04:05:14.354Z,69.37
2023-02-02T04:07:41.050Z,68.60
2023-02-02T04:10:08.087Z,69.74
2023-02-02T04:12:34.705Z,69.31
2023-02-02T04:15:01.370Z,69.46
2023-02-02T04:17:28.157Z,69.17
2023-02-02T04:19:58.065Z,69.66
2023-02-02T04:22:25.777Z,69.55
2023-02-02T04:24:52.579Z,70.55
2023-02-02T04:27:19.758Z,70.63
2023-02-02T04:29:46.418Z,70.93
2023-02-02T04:32:17.309Z,70.84
2023-02-02T04:34:44.818Z,71.24
2023-02-02T04:37:12.060Z,71.48
2023-02-02T04:39:38.812Z,71.98
2023-02-02T04:42:05.538Z,71.06
2023-02-02T04:44:32.289Z,70.82
2023-02-02T04:46:59.202Z,70.84
2023-02-02T04:49:25.868Z,71.84
2023-02-02T04:51:52.524Z,70.76
2023-02-02T04:54:19.158Z,70.32
2023-02-02T04:56:45.785Z,70.53
2023-02-02T04:59:12.546Z,69.79
2023-02-02T05:01:39.723Z,70.50
2023-02-02T05:04:06.704Z,71.14
2023-02-02T05:06:33.700Z,71.56
2023-02-02T05:09:01.203Z,71.03
2023-02-02T05:11:28.108Z,70.92
2023-02-02T05:13:55.218Z,70.66
2023-02-02T05:16:23.556Z,70.12
2023-02-02T05:18:56.597Z,71.16
2023-02-02T05:21:24.186Z,70.35
2023-02-02T05:23:50.897Z,70.02
2023-02-02T05:26:22.333Z,69.10
2023-02-02T05:28:49.371Z,69.39
2023-02-02T05:31:16.550Z,69.56
2023-02-02T05:33:43.506Z,69.70
2023-02-02T05:36:10.635Z,68.78
2023-02-02T05:38:37.262Z,69.39
2023-02-02T05:41:04.532Z,68.81
2023-02-02T05:43:32.354Z,68.51
2023-02-02T05:45:59.682Z,68.92
2023-02-02T05:48:27.047Z,68.89
2023-02-02T05:51:14.677Z,69.09
2023-02-02T05:53:41.374Z,69.12
2023-02-02T05:56:07.985Z,69.66
2023-02-02T05:58:34.754Z,69.81
2023-02-02T06:01:01.475Z,69.04
2023-02-02T06:03:28.225Z,68.76
2023-02-02T06:05:54.950Z,69.02
2023-02-02T06:08:21.577Z,68.92
2023-02-02T06:10:48.348Z,68.87
2023-02-02T06:13:15.398Z,68.97
2023-02-02T06:15:43.229Z,69.13
2023-02-02T06:18:10.045Z,69.06
2023-02-02T06:20:37.364Z,69.17
2023-02-02T06:23:04.644Z,68.68
2023-02-02T06:25:31.322Z,69.12
2023-02-02T06:27:59.444Z,68.79
2023-02-02T06:30:27.271Z,68.34
2023-02-02T06:32:54.076Z,68.71
2023-02-02T06:35:20.725Z,68.78
2023-02-02T06:37:49.162Z,69.50
2023-02-02T06:40:16.217Z,69.72
2023-02-02T06:42:42.857Z,69.27
2023-02-02T06:45:10.170Z,70.00
2023-02-02T06:47:37.005Z,69.12
2023-02-02T06:50:04.357Z,69.31
2023-02-02T06:52:31.056Z,69.70
2023-02-02T06:54:57.727Z,69.94
2023-02-02T06:57:24.432Z,69.04
2023-02-02T06:59:52.275Z,69.90
2023-02-02T07:02:19.289Z,69.60
2023-02-02T07:04:45.983Z,68.98
2023-02-02T07:07:12.828Z,69.71
2023-02-02T07:09:39.451Z,69.37
2023-02-02T07:12:06.752Z,68.93
2023-02-02T07:14:33.505Z,69.43
2023-02-02T07:17:00.109Z,69.01
2023-02-02T07:19:26.724Z,69.66
2023-02-02T07:21:53.375Z,69.78
2023-02-02T07:24:20.002Z,70.25
2023-02-02T07:26:46.732Z,69.29
2023-02-02T07:29:14.255Z,69.31
2023-02-02T07:31:41.222Z,69.81
2023-02-02T07:34:08.285Z,69.46
2023-02-02T07:36:35.357Z,69.09
2023-02-02T07:39:04.628Z,68.56
2023-02-02T07:41:32.214Z,68.69
2023-02-02T07:43:58.881Z,69.10
2023-02-02T07:46:25.700Z,68.63
2023-02-02T07:48:56.371Z,69.29
2023-02-02T07:51:23.974Z,68.95
2023-02-02T07:53:53.150Z,70.02
2023-02-02T07:56:22.894Z,69.02
2023-02-02T07:58:51.860Z,68.86
2023-02-02T08:01:20.427Z,69.39
2023-02-02T08:03:47.233Z,69.07
2023-02-02T08:06:21.352Z,70.50
2023-02-02T08:08:48.285Z,69.89
2023-02-02T08:11:16.970Z,69.53
2023-02-02T08:13:44.705Z,69.48
2023-02-02T08:16:12.826Z,68.98
2023-02-02T08:18:39.918Z,68.97
2023-02-02T08:21:08.816Z,68.45
2023-02-02T08:23:36.787Z,69.07
2023-02-02T08:26:07.566Z,68.65
2023-02-02T08:28:36.322Z,68.73
2023-02-02T08:31:11.574Z,68.56
2023-02-02T08:33:39.554Z,68.59
2023-02-02T08:36:19.795Z,68.93
2023-02-02T08:38:46.952Z,68.89
2023-02-02T08:41:16.526Z,68.34
2023-02-02T08:43:43.777Z,68.83
2023-02-02T08:46:14.329Z,68.70
2023-02-02T08:48:41.363Z,69.17
2023-02-02T08:51:10.207Z,69.02
2023-02-02T08:53:36.805Z,69.86
2023-02-02T08:56:13.359Z,69.62
2023-02-02T08:58:40.085Z,69.38
2023-02-02T09:01:19.100Z,69.70
2023-02-02T09:03:46.392Z,68.97
2023-02-02T09:06:18.363Z,68.32
2023-02-02T09:08:46.276Z,68.74
2023-02-02T09:11:18.347Z,68.23
2023-02-02T09:13:47.197Z,69.08
2023-02-02T09:16:15.840Z,68.52
2023-02-02T09:18:43.663Z,68.43
2023-02-02T09:21:12.914Z,67.94
2023-02-02T09:23:41.671Z,68.36
2023-02-02T09:26:28.821Z,68.59
2023-02-02T09:28:58.058Z,68.48
2023-02-02T09:31:26.297Z,68.42
2023-02-02T09:33:53.042Z,68.62
2023-02-02T09:36:22.073Z,68.41
2023-02-02T09:38:50.346Z,67.66
2023-02-02T09:42:01.345Z,66.66
2023-02-02T09:44:49.556Z,67.19
2023-02-02T09:47:23.840Z,66.71
2023-02-02T09:49:56.338Z,66.30
2023-02-02T09:52:28.213Z,66.30
2023-02-02T09:55:06.970Z,66.35
2023-02-02T09:57:41.285Z,65.89
2023-02-02T10:00:26.069Z,66.62
2023-02-02T10:03:02.399Z,66.26
2023-02-02T10:05:41.849Z,66.05
2023-02-02T10:08:20.565Z,66.28
2023-02-02T10:10:55.863Z,66.21
2023-02-02T10:13:34.062Z,67.07
2023-02-02T10:16:07.438Z,66.20
2023-02-02T10:18:42.524Z,66.58
2023-02-02T10:21:30.359Z,67.33
2023-02-02T10:23:58.618Z,66.42
2023-02-02T10:26:31.822Z,66.36
2023-02-02T10:29:17.053Z,66.07
2023-02-02T10:32:30.914Z,66.09
2023-02-02T10:35:14.213Z,66.21
2023-02-02T10:38:06.928Z,65.37
2023-02-02T10:40:44.642Z,65.59
2023-02-02T10:43:51.317Z,65.27
2023-02-02T10:46:31.120Z,65.91
2023-02-02T10:49:15.196Z,65.45
2023-02-02T10:51:49.067Z,65.34
2023-02-02T10:54:55.516Z,65.17
2023-02-02T10:58:15.996Z,65.04
2023-02-02T11:00:46.517Z,65.08
2023-02-02T11:03:16.124Z,65.22
2023-02-02T11:06:01.722Z,66.11
2023-02-02T11:08:33.872Z,65.54
2023-02-02T11:11:17.259Z,65.87
2023-02-02T11:13:51.768Z,65.45
2023-02-02T11:16:21.420Z,65.01
2023-02-02T11:18:48.541Z,64.65
2023-02-02T11:21:22.719Z,64.49
2023-02-02T11:24:19.276Z,64.20
2023-02-02T11:26:46.076Z,64.78
2023-02-02T11:29:20.587Z,65.30
2023-02-02T11:31:47.487Z,64.38
2023-02-02T11:34:20.664Z,63.78
2023-02-02T11:37:12.886Z,63.58
2023-02-02T11:39:41.437Z,63.09
2023-02-02T11:42:27.280Z,63.17
2023-02-02T11:44:57.243Z,63.07
2023-02-02T11:47:30.314Z,62.93
2023-02-02T11:49:59.638Z,62.75
2023-02-02T11:52:32.484Z,62.76
2023-02-02T11:55:02.413Z,61.79
2023-02-02T11:57:30.534Z,61.96
2023-02-02T12:00:18.594Z,61.83
2023-02-02T12:02:47.881Z,61.26
2023-02-02T12:05:20.575Z,61.00
2023-02-02T12:07:48.765Z,60.85
2023-02-02T12:10:46.761Z,59.61
2023-02-02T12:13:31.443Z,59.26
2023-02-02T12:16:22.820Z,58.97
2023-02-02T12:19:15.154Z,59.91
2023-02-02T12:22:01.217Z,59.77
2023-02-02T12:24:37.941Z,59.34
2023-02-02T12:27:22.956Z,59.82
2023-02-02T12:30:03.530Z,59.25
2023-02-02T12:32:51.916Z,59.33
2023-02-02T12:35:39.742Z,59.74
2023-02-02T12:38:30.298Z,60.10
2023-02-02T12:41:16.778Z,60.00
2023-02-02T12:43:47.294Z,59.77
2023-02-02T12:46:32.362Z,59.76
2023-02-02T12:49:28.069Z,59.18
2023-02-02T12:51:54.672Z,59.42
2023-02-02T12:54:41.781Z,59.75
2023-02-02T12:57:27.049Z,59.63
2023-02-02T13:00:20.339Z,59.79
2023-02-02T13:03:05.305Z,59.45
2023-02-02T13:06:02.448Z,59.16
2023-02-02T13:08:51.890Z,59.39
2023-02-02T13:11:49.943Z,58.84
2023-02-02T13:14:39.612Z,59.12
2023-02-02T13:17:18.531Z,58.39
2023-02-02T13:19:52.221Z,59.39
2023-02-02T13:22:26.733Z,58.86
2023-02-02T13:24:58.986Z,58.50
2023-02-02T13:27:28.945Z,58.11
2023-02-02T13:30:29.381Z,58.89
2023-02-02T13:33:00.728Z,58.44
2023-02-02T13:35:34.103Z,58.83
2023-02-02T13:38:42.142Z,58.10
2023-02-02T13:41:13.405Z,58.26
2023-02-02T13:44:06.276Z,57.93
2023-02-02T13:46:56.460Z,58.28
2023-02-02T13:49:41.753Z,58.15
2023-02-02T13:52:25.082Z,57.78
2023-02-02T13:55:23.019Z,57.70
2023-02-02T13:57:53.014Z,57.68
2023-02-02T14:00:30.455Z,57.41
2023-02-02T14:03:00.270Z,57.81
2023-02-02T14:05:38.899Z,58.47
2023-02-02T14:08:07.214Z,58.20
2023-02-02T14:10:37.954Z,58.36
2023-02-02T14:13:34.514Z,57.99
2023-02-02T14:16:05.561Z,57.80
2023-02-02T14:18:59.637Z,58.11
2023-02-02T14:21:32.537Z,58.04
2023-02-02T14:23:59.178Z,58.45
2023-02-02T14:26:47.426Z,58.65
2023-02-02T14:29:31.416Z,58.60
2023-02-02T14:32:00.979Z,59.82
2023-02-02T14:34:35.090Z,59.63
2023-02-02T14:37:16.935Z,59.38
2023-02-02T14:40:06.086Z,59.72
2023-02-02T14:43:25.187Z,59.92
2023-02-02T14:46:07.145Z,60.88
2023-02-02T14:48:34.713Z,59.83
2023-02-02T14:51:02.771Z,60.25
2023-02-02T14:53:36.238Z,60.32
2023-02-02T14:56:14.444Z,60.73
2023-02-02T14:58:46.805Z,59.43
2023-02-02T15:01:25.895Z,59.18
2023-02-02T15:04:15.680Z,59.36
2023-02-02T15:06:43.222Z,59.95
2023-02-02T15:09:29.082Z,60.03
2023-02-02T15:12:00.861Z,60.94
2023-02-02T15:15:05.146Z,61.16
2023-02-02T15:17:41.023Z,61.42
2023-02-02T15:20:22.923Z,61.06
2023-02-02T15:22:52.652Z,60.88
2023-02-02T15:25:37.035Z,60.87
2023-02-02T15:28:31.610Z,60.57
2023-02-02T15:31:02.585Z,61.08
2023-02-02T15:33:36.634Z,61.70
2023-02-02T15:36:06.175Z,61.99
2023-02-02T15:38:39.080Z,62.62
2023-02-02T15:41:20.514Z,62.51
2023-02-02T15:43:47.362Z,62.78
2023-02-02T15:46:24.205Z,64.17
2023-02-02T15:49:33.326Z,64.36
2023-02-02T15:52:10.797Z,64.25
2023-02-02T15:54:40.244Z,63.69
2023-02-02T15:57:25.441Z,64.29
2023-02-02T15:59:52.220Z,64.28
2023-02-02T16:02:43.034Z,65.05
2023-02-02T16:05:31.301Z,65.73
2023-02-02T16:08:05.688Z,65.94
2023-02-02T16:10:34.130Z,65.39
2023-02-02T16:13:01.405Z,65.98
2023-02-02T16:15:29.868Z,66.65
2023-02-02T16:18:13.375Z,67.16
2023-02-02T16:20:41.407Z,66.29
2023-02-02T16:23:15.377Z,67.09
2023-02-02T16:25:48.672Z,67.53
2023-02-02T16:28:18.323Z,67.13
2023-02-02T16:30:45.612Z,67.78
2023-02-02T16:33:28.347Z,68.38
2023-02-02T16:35:55.975Z,68.87
2023-02-02T16:38:37.351Z,69.47
2023-02-02T16:41:10.901Z,68.90
2023-02-02T16:43:39.992Z,68.72
2023-02-02T16:46:12.730Z,69.63
2023-02-02T16:48:44.885Z,69.14
2023-02-02T16:51:20.604Z,69.39
2023-02-02T16:54:12.376Z,69.48
2023-02-02T16:56:45.020Z,69.25
2023-02-02T16:59:28.416Z,68.31
2023-02-02T17:01:59.805Z,68.29
2023-02-02T17:04:28.998Z,68.63
2023-02-02T17:07:05.299Z,68.13
2023-02-02T17:09:40.972Z,68.65
2023-02-02T17:12:32.810Z,68.40
2023-02-02T17:15:21.291Z,68.40
2023-02-02T17:17:49.401Z,68.25
2023-02-02T17:20:17.969Z,68.44
2023-02-02T17:22:49.162Z,68.46
2023-02-02T17:25:27.591Z,68.82
2023-02-02T17:27:55.459Z,68.62
2023-02-02T17:30:22.701Z,68.32
2023-02-02T17:32:49.386Z,68.36
2023-02-02T17:35:19.565Z,68.70
2023-02-02T17:37:46.533Z,69.69
2023-02-02T17:40:17.567Z,69.47
2023-02-02T17:42:45.799Z,69.07
2023-02-02T17:45:34.144Z,69.27
2023-02-02T17:48:01.752Z,68.99
2023-02-02T17:50:29.990Z,68.79
2023-02-02T17:52:56.884Z,69.52
2023-02-02T17:55:33.093Z,69.01
2023-02-02T17:58:00.010Z,68.77
2023-02-02T18:00:30.006Z,68.92
2023-02-02T18:03:01.403Z,68.66
2023-02-02T18:05:28.320Z,68.63
2023-02-02T18:07:55.189Z,68.28
2023-02-02T18:10:24.764Z,67.56
2023-02-02T18:12:51.735Z,67.36
2023-02-02T18:15:18.472Z,67.21
2023-02-02T18:17:45.170Z,67.11
2023-02-02T18:20:15.082Z,66.74
2023-02-02T18:22:48.170Z,66.39
2023-02-02T18:25:15.256Z,66.22
2023-02-02T18:27:42.220Z,66.51
2023-02-02T18:30:09.941Z,66.09
2023-02-02T18:32:41.494Z,65.99
2023-02-02T18:35:10.545Z,65.84
2023-02-02T18:37:37.750Z,65.60
2023-02-02T18:40:05.072Z,65.84
2023-02-02T18:42:34.623Z,65.69
2023-02-02T18:45:02.037Z,64.97
2023-02-02T18:47:28.740Z,64.77
2023-02-02T18:49:55.628Z,65.00
2023-02-02T18:52:22.365Z,65.44
2023-02-02T18:54:49.607Z,66.10
2023-02-02T18:57:17.389Z,65.47
2023-02-02T18:59:44.416Z,65.52
2023-02-02T19:02:14.746Z,65.31
2023-02-02T19:05:01.777Z,65.72
2023-02-02T19:07:51.611Z,65.53
2023-02-02T19:10:19.373Z,65.15
2023-02-02T19:12:55.659Z,65.09
2023-02-02T19:15:22.928Z,65.40
2023-02-02T19:17:52.303Z,65.91
2023-02-02T19:20:30.402Z,65.72
2023-02-02T19:23:06.602Z,65.44
2023-02-02T19:25:33.393Z,66.02
2023-02-02T19:28:07.032Z,65.67
2023-02-02T19:30:33.789Z,65.71
2023-02-02T19:33:02.184Z,66.24
2023-02-02T19:35:29.406Z,66.29
2023-02-02T19:38:01.701Z,66.77
2023-02-02T19:40:28.724Z,65.73
2023-02-02T19:43:18.008Z,66.39
2023-02-02T19:45:47.709Z,66.30
2023-02-02T19:48:26.571Z,66.43
2023-02-02T19:50:55.731Z,66.82
2023-02-02T19:53:34.621Z,66.53
2023-02-02T19:56:01.909Z,67.03
2023-02-02T19:58:39.425Z,66.64
2023-02-02T20:01:19.328Z,66.77
2023-02-02T20:03:46.753Z,66.64
2023-02-02T20:06:22.399Z,66.90
2023-02-02T20:08:49.079Z,67.00
2023-02-02T20:11:37.562Z,67.64
2023-02-02T20:14:30.369Z,68.02
2023-02-02T20:17:02.301Z,68.78
2023-02-02T20:19:33.514Z,67.89
2023-02-02T20:22:02.283Z,69.01
2023-02-02T20:24:37.610Z,69.44
2023-02-02T20:27:17.921Z,69.66
2023-02-02T20:29:46.941Z,69.56
2023-02-02T20:32:26.581Z,69.05
2023-02-02T20:34:58.702Z,69.63
2023-02-02T20:37:29.163Z,70.46
2023-02-02T20:39:59.034Z,70.82
2023-02-02T20:42:25.884Z,70.05
2023-02-02T20:44:53.162Z,70.27
2023-02-02T20:47:20.891Z,71.85
2023-02-02T20:49:48.146Z,72.11
2023-02-02T20:52:23.348Z,71.37
2023-02-02T20:54:51.522Z,71.27
2023-02-02T20:57:18.281Z,71.81
2023-02-02T20:59:44.998Z,71.76
2023-02-02T21:02:19.323Z,70.92
2023-02-02T21:04:48.030Z,70.76
2023-02-02T21:07:17.386Z,71.71
2023-02-02T21:09:45.406Z,71.45
2023-02-02T21:12:12.425Z,70.76
2023-02-02T21:14:39.326Z,70.09
2023-02-02T21:17:14.895Z,71.21
2023-02-02T21:19:43.202Z,71.05
2023-02-02T21:22:10.423Z,70.51
2023-02-02T21:24:37.240Z,70.80
2023-02-02T21:27:04.556Z,70.89
2023-02-02T21:29:32.052Z,70.94
2023-02-02T21:32:02.459Z,70.67
2023-02-02T21:34:30.676Z,71.39
2023-02-02T21:36:58.622Z,70.51
2023-02-02T21:39:35.191Z,70.87
2023-02-02T21:42:07.838Z,70.87
2023-02-02T21:44:36.281Z,70.03
2023-02-02T21:47:03.185Z,70.96
2023-02-02T21:49:37.385Z,71.26
2023-02-02T21:52:26.957Z,71.11
2023-02-02T21:54:53.797Z,71.30
2023-02-02T21:57:27.859Z,71.17
2023-02-02T21:59:56.742Z,71.31
2023-02-02T22:02:39.238Z,70.95
2023-02-02T22:05:16.140Z,70.45
2023-02-02T22:07:46.459Z,71.63
2023-02-02T22:10:27.481Z,72.58
2023-02-02T22:12:54.376Z,72.15
2023-02-02T22:15:24.837Z,71.93
2023-02-02T22:17:51.552Z,71.39
2023-02-02T22:20:48.723Z,71.58
2023-02-02T22:23:23.037Z,71.42
2023-02-02T22:25:53.120Z,72.10
2023-02-02T22:28:28.380Z,71.57
2023-02-02T22:30:57.006Z,72.16
2023-02-02T22:33:26.245Z,71.75
2023-02-02T22:35:53.318Z,71.72
2023-02-02T22:38:22.370Z,71.75
2023-02-02T22:40:50.554Z,71.46
2023-02-02T22:43:18.509Z,72.00
2023-02-02T22:45:46.082Z,71.81
2023-02-02T22:48:14.664Z,71.46
2023-02-02T22:50:42.146Z,71.60
2023-02-02T22:53:09.458Z,71.43
2023-02-02T22:55:36.116Z,72.14
2023-02-02T22:58:02.685Z,72.39
2023-02-02T23:00:32.894Z,71.87
2023-02-02T23:02:59.841Z,70.67
2023-02-02T23:05:27.487Z,70.87
2023-02-02T23:07:54.213Z,71.14
2023-02-02T23:10:25.182Z,71.46
2023-02-02T23:12:55.042Z,70.62
2023-02-02T23:15:22.004Z,70.65
2023-02-02T23:17:48.847Z,70.80
2023-02-02T23:20:15.990Z,70.61
2023-02-02T23:22:43.018Z,70.48
2023-02-02T23:25:10.622Z,70.72
2023-02-02T23:27:37.723Z,70.50
2023-02-02T23:30:08.531Z,71.20
2023-02-02T23:32:35.589Z,70.75
2023-02-02T23:35:03.251Z,71.51
2023-02-02T23:37:29.965Z,72.14
2023-02-02T23:39:56.686Z,71.80
2023-02-02T23:42:23.395Z,73.17
2023-02-02T23:44:50.067Z,72.78
2023-02-02T23:47:19.856Z,72.81
2023-02-02T23:49:46.725Z,73.37
2023-02-02T23:52:13.530Z,73.35
2023-02-02T23:54:40.489Z,73.18
2023-02-02T23:57:07.170Z,72.87
2023-02-02T23:59:33.778Z,72.78
